createdAt,value
2022-12-18T00:00:22.562Z,47.17
2022-12-18T00:03:08.788Z,43.78
2022-12-18T00:05:55.413Z,44.67
2022-12-18T00:08:41.968Z,46.25
2022-12-18T00:11:29.520Z,44.92
2022-12-18T00:14:16.242Z,48.47
2022-12-18T00:17:03.010Z,48.70
2022-12-18T00:19:49.418Z,46.50
2022-12-18T00:22:35.576Z,47.38
2022-12-18T00:25:21.818Z,38.38
2022-12-18T00:28:07.955Z,32.72
2022-12-18T00:31:01.339Z,33.33
2022-12-18T00:33:47.947Z,34.22
2022-12-18T00:36:36.483Z,37.35
2022-12-18T00:39:22.860Z,32.05
2022-12-18T00:42:28.673Z,30.50
2022-12-18T00:45:15.148Z,29.67
2022-12-18T00:48:01.228Z,31.25
2022-12-18T00:50:47.397Z,34.92
2022-12-18T00:53:33.494Z,29.42
2022-12-18T00:56:19.771Z,35.72
2022-12-18T00:59:06.540Z,35.92
2022-12-18T01:01:53.082Z,29.85
2022-12-18T01:04:40.068Z,31.13
2022-12-18T01:07:26.710Z,29.67
2022-12-18T01:10:14.108Z,31.08
2022-12-18T01:13:00.537Z,30.13
2022-12-18T01:15:50.580Z,30.73
2022-12-18T01:18:37.416Z,31.98
2022-12-18T01:21:24.271Z,26.52
2022-12-18T01:24:13.541Z,30.40
2022-12-18T01:26:59.846Z,32.25
2022-12-18T01:29:46.079Z,26.45
2022-12-18T01:32:33.025Z,31.98
2022-12-18T01:35:19.700Z,28.88
2022-12-18T01:38:06.298Z,32.28
2022-12-18T01:40:58.835Z,32.83
2022-12-18T01:43:53.395Z,24.03
2022-12-18T01:46:39.826Z,27.67
2022-12-18T01:49:25.951Z,34.92
2022-12-18T01:52:12.271Z,24.48
2022-12-18T01:54:58.336Z,24.25
2022-12-18T01:57:47.417Z,30.40
2022-12-18T02:00:33.556Z,31.80
2022-12-18T02:03:19.928Z,31.40
2022-12-18T02:06:42.122Z,28.67
2022-12-18T02:09:35.617Z,31.40
2022-12-18T02:12:23.586Z,27.42
2022-12-18T02:15:33.400Z,30.00
2022-12-18T02:18:22.991Z,32.35
2022-12-18T02:21:12.233Z,29.88
2022-12-18T02:23:59.011Z,30.45
2022-12-18T02:26:50.736Z,26.83
2022-12-18T02:29:48.091Z,27.88
2022-12-18T02:32:39.637Z,25.88
2022-12-18T02:35:27.127Z,26.58
2022-12-18T02:38:18.160Z,28.63
2022-12-18T02:41:08.141Z,26.13
2022-12-18T02:43:57.496Z,27.25
2022-12-18T02:46:54.511Z,23.77
2022-12-18T02:49:59.507Z,28.00
2022-12-18T02:53:02.272Z,26.30
2022-12-18T02:55:54.893Z,30.67
2022-12-18T02:59:00.323Z,30.65
2022-12-18T03:02:18.881Z,32.03
2022-12-18T03:05:29.498Z,31.98
2022-12-18T03:08:27.248Z,36.38
2022-12-18T03:11:15.933Z,31.98
2022-12-18T03:14:04.628Z,30.52
2022-12-18T03:16:53.032Z,31.67
2022-12-18T03:19:40.507Z,30.13
2022-12-18T03:22:28.598Z,31.48
2022-12-18T03:25:15.894Z,30.13
2022-12-18T03:28:04.020Z,33.53
2022-12-18T03:30:54.187Z,36.42
2022-12-18T03:33:46.453Z,37.30
2022-12-18T03:39:21.103Z,29.10
2022-12-18T03:42:27.807Z,38.08
2022-12-18T03:45:34.695Z,36.80
2022-12-18T03:48:31.170Z,33.20
2022-12-18T03:51:24.990Z,31.98
2022-12-18T03:54:12.601Z,32.85
2022-12-18T03:57:08.508Z,36.85
2022-12-18T04:00:01.096Z,32.97
2022-12-18T04:03:01.766Z,36.20
2022-12-18T04:05:59.744Z,35.13
2022-12-18T04:08:47.070Z,33.13
2022-12-18T04:11:36.540Z,31.52
2022-12-18T04:14:24.230Z,30.73
2022-12-18T04:17:15.023Z,33.78
2022-12-18T04:20:00.947Z,26.50
2022-12-18T04:22:49.011Z,34.15
2022-12-18T04:25:35.297Z,31.23
2022-12-18T04:28:27.690Z,29.73
2022-12-18T04:31:13.700Z,31.10
2022-12-18T04:33:59.804Z,31.42
2022-12-18T04:36:46.418Z,37.97
2022-12-18T04:39:34.100Z,37.45
2022-12-18T04:42:25.680Z,30.17
2022-12-18T04:45:11.980Z,29.95
2022-12-18T04:47:59.499Z,26.20
2022-12-18T04:50:45.901Z,31.60
2022-12-18T04:53:32.075Z,29.33
2022-12-18T04:56:18.898Z,31.77
2022-12-18T04:59:04.895Z,29.38
2022-12-18T05:01:51.325Z,31.58
2022-12-18T05:04:37.683Z,29.67
2022-12-18T05:07:24.006Z,30.65
2022-12-18T05:10:10.684Z,29.95
2022-12-18T05:13:01.258Z,28.23
2022-12-18T05:15:53.930Z,25.42
2022-12-18T05:18:40.834Z,28.20
2022-12-18T05:21:27.479Z,27.92
2022-12-18T05:24:13.741Z,32.05
2022-12-18T05:27:00.005Z,28.77
2022-12-18T05:29:46.385Z,29.45
2022-12-18T05:32:32.474Z,36.58
2022-12-18T05:35:18.672Z,30.98
2022-12-18T05:38:05.339Z,27.98
2022-12-18T05:40:52.081Z,26.55
2022-12-18T05:43:40.168Z,32.22
2022-12-18T05:46:26.913Z,27.85
2022-12-18T05:49:13.214Z,25.63
2022-12-18T05:51:59.340Z,33.92
2022-12-18T05:54:45.563Z,32.13
2022-12-18T05:57:31.778Z,30.80
2022-12-18T06:00:18.093Z,28.25
2022-12-18T06:03:04.714Z,29.27
2022-12-18T06:05:51.002Z,31.33
2022-12-18T06:08:41.451Z,31.15
2022-12-18T06:11:30.925Z,29.70
2022-12-18T06:14:18.409Z,30.88
2022-12-18T06:17:04.884Z,31.60
2022-12-18T06:19:50.936Z,30.08
2022-12-18T06:22:37.519Z,30.55
2022-12-18T06:25:23.696Z,29.90
2022-12-18T06:28:09.787Z,33.85
2022-12-18T06:30:57.075Z,35.15
2022-12-18T06:33:43.570Z,37.00
2022-12-18T06:36:29.786Z,32.60
2022-12-18T06:39:15.958Z,37.05
2022-12-18T06:42:02.940Z,36.88
2022-12-18T06:44:49.289Z,32.78
2022-12-18T06:47:35.495Z,34.67
2022-12-18T06:50:21.819Z,33.85
2022-12-18T06:53:07.995Z,33.13
2022-12-18T06:55:54.800Z,32.33
2022-12-18T06:58:41.489Z,30.42
2022-12-18T07:01:27.803Z,31.75
2022-12-18T07:04:14.021Z,34.90
2022-12-18T07:07:00.887Z,34.53
2022-12-18T07:09:47.057Z,29.55
2022-12-18T07:12:33.662Z,34.30
2022-12-18T07:15:19.918Z,31.90
2022-12-18T07:18:06.052Z,37.55
2022-12-18T07:20:52.454Z,33.95
2022-12-18T07:23:38.974Z,39.65
2022-12-18T07:26:25.563Z,36.60
2022-12-18T07:29:12.028Z,37.25
2022-12-18T07:31:58.340Z,35.35
2022-12-18T07:34:44.785Z,34.65
2022-12-18T07:37:31.109Z,37.25
2022-12-18T07:40:17.235Z,37.22
2022-12-18T07:43:03.743Z,33.20
2022-12-18T07:45:51.845Z,34.20
2022-12-18T07:48:38.028Z,36.92
2022-12-18T07:51:23.987Z,35.70
2022-12-18T07:54:10.333Z,38.15
2022-12-18T07:56:56.649Z,38.03
2022-12-18T07:59:43.105Z,39.92
2022-12-18T08:02:32.096Z,39.50
2022-12-18T08:05:18.537Z,38.83
2022-12-18T08:08:04.758Z,40.17
2022-12-18T08:10:50.971Z,43.65
2022-12-18T08:13:37.280Z,37.60
2022-12-18T08:16:24.233Z,38.42
2022-12-18T08:19:11.974Z,44.90
2022-12-18T08:21:58.373Z,43.03
2022-12-18T08:24:44.604Z,40.20
2022-12-18T08:27:30.852Z,43.13
2022-12-18T08:30:17.545Z,37.17
2022-12-18T08:33:05.042Z,42.08
2022-12-18T08:35:51.682Z,40.72
2022-12-18T08:38:38.131Z,41.83
2022-12-18T08:41:25.073Z,38.90
2022-12-18T08:44:36.944Z,39.35
2022-12-18T08:47:27.048Z,40.33
2022-12-18T08:50:13.589Z,35.08
2022-12-18T08:52:59.997Z,39.42
2022-12-18T08:55:50.219Z,33.58
2022-12-18T08:58:36.693Z,36.67
2022-12-18T09:01:23.010Z,37.35
2022-12-18T09:04:10.239Z,44.65
2022-12-18T09:06:56.943Z,37.50
2022-12-18T09:09:43.107Z,35.53
2022-12-18T09:12:29.331Z,39.17
2022-12-18T09:15:15.455Z,36.92
2022-12-18T09:18:01.796Z,41.05
2022-12-18T09:20:48.530Z,37.22
2022-12-18T09:23:34.910Z,37.58
2022-12-18T09:26:22.364Z,37.03
2022-12-18T09:29:08.900Z,33.92
2022-12-18T09:31:55.348Z,32.92
2022-12-18T09:34:41.750Z,33.25
2022-12-18T09:37:29.265Z,34.92
2022-12-18T09:40:21.296Z,34.00
2022-12-18T09:43:08.833Z,36.40
2022-12-18T09:46:00.298Z,35.53
2022-12-18T09:48:49.710Z,35.45
2022-12-18T09:51:39.457Z,35.20
2022-12-18T09:54:34.914Z,38.95
2022-12-18T09:57:23.807Z,38.70
2022-12-18T10:00:22.257Z,38.67
2022-12-18T10:03:14.572Z,38.80
2022-12-18T10:06:08.764Z,36.92
2022-12-18T10:12:07.944Z,39.22
2022-12-18T10:15:13.956Z,38.22
2022-12-18T10:18:03.671Z,36.38
2022-12-18T10:21:02.381Z,33.50
2022-12-18T10:24:00.803Z,39.40
2022-12-18T10:26:55.081Z,36.28
2022-12-18T10:29:41.259Z,42.08
2022-12-18T10:32:28.964Z,36.42
2022-12-18T10:35:25.813Z,40.90
2022-12-18T10:38:18.441Z,37.65
2022-12-18T10:41:06.264Z,37.55
2022-12-18T10:44:13.759Z,37.55
2022-12-18T10:47:10.176Z,35.30
2022-12-18T10:49:58.937Z,38.53
2022-12-18T10:52:45.358Z,36.83
2022-12-18T10:55:39.541Z,38.75
2022-12-18T10:58:36.747Z,43.10
2022-12-18T11:01:23.807Z,44.45
2022-12-18T11:04:10.838Z,45.05
2022-12-18T11:07:08.039Z,40.92
2022-12-18T11:10:03.644Z,45.08
2022-12-18T11:12:50.283Z,41.88
2022-12-18T11:15:37.185Z,39.45
2022-12-18T11:18:26.585Z,46.25
2022-12-18T11:21:15.163Z,40.20
2022-12-18T11:24:01.866Z,47.50
2022-12-18T11:26:48.107Z,47.17
2022-12-18T11:29:46.708Z,41.92
2022-12-18T11:32:41.911Z,42.70
2022-12-18T11:35:34.277Z,47.22
2022-12-18T11:38:26.546Z,43.38
2022-12-18T11:41:13.236Z,48.65
2022-12-18T11:44:01.524Z,49.78
2022-12-18T11:46:58.782Z,48.00
2022-12-18T11:49:55.426Z,47.33
2022-12-18T11:52:43.301Z,48.72
2022-12-18T11:56:13.627Z,44.85
2022-12-18T11:59:10.982Z,50.20
2022-12-18T12:02:22.532Z,46.10
2022-12-18T12:08:33.491Z,50.47
2022-12-18T12:11:21.003Z,53.75
2022-12-18T12:14:13.530Z,46.40
2022-12-18T12:20:56.290Z,56.50
2022-12-18T12:23:43.385Z,54.13
2022-12-18T12:26:58.650Z,50.13
2022-12-18T12:29:53.001Z,53.65
2022-12-18T12:32:42.732Z,51.33
2022-12-18T12:39:16.861Z,54.60
2022-12-18T12:42:24.591Z,50.20
2022-12-18T12:45:28.920Z,51.20
2022-12-18T12:51:45.584Z,51.50
2022-12-18T12:54:36.589Z,50.25
2022-12-18T12:57:37.402Z,53.85
2022-12-18T13:00:36.233Z,53.03
2022-12-18T13:03:36.499Z,47.42
2022-12-18T13:06:36.900Z,56.67
2022-12-18T13:31:49.585Z,49.35
2022-12-18T13:34:37.387Z,47.50
2022-12-18T13:37:35.173Z,47.75
2022-12-18T13:40:51.927Z,48.85
2022-12-18T13:43:47.704Z,50.58
2022-12-18T13:46:59.577Z,49.45
2022-12-18T13:49:48.903Z,41.63
2022-12-18T13:52:38.383Z,49.38
2022-12-18T13:55:25.642Z,47.00
2022-12-18T13:58:19.065Z,47.58
2022-12-18T14:01:06.557Z,53.45
2022-12-18T14:04:10.401Z,43.10
2022-12-18T14:07:26.803Z,44.95
2022-12-18T14:10:47.974Z,43.90
2022-12-18T14:13:38.728Z,43.95
2022-12-18T14:16:29.336Z,44.65
2022-12-18T14:19:21.532Z,49.40
2022-12-18T14:22:13.756Z,46.75
2022-12-18T14:25:17.164Z,37.03
2022-12-18T14:31:12.734Z,42.88
2022-12-18T14:34:00.080Z,44.90
2022-12-18T14:36:57.812Z,41.47
2022-12-18T14:39:54.035Z,47.15
2022-12-18T14:42:40.437Z,46.83
2022-12-18T14:45:43.792Z,50.65
2022-12-18T14:48:37.330Z,43.38
2022-12-18T14:51:26.452Z,43.97
2022-12-18T14:54:20.590Z,44.17
2022-12-18T14:57:26.783Z,47.92
2022-12-18T15:03:21.730Z,42.90
2022-12-18T15:06:18.591Z,48.97
2022-12-18T15:12:32.771Z,41.88
2022-12-18T15:18:46.392Z,47.55
2022-12-18T15:21:33.627Z,42.47
2022-12-18T15:24:23.758Z,40.75
2022-12-18T15:27:31.119Z,38.35
2022-12-18T15:30:19.571Z,43.30
2022-12-18T15:33:23.878Z,43.20
2022-12-18T15:39:21.544Z,38.15
2022-12-18T15:52:01.796Z,34.30
2022-12-18T15:55:07.097Z,36.92
2022-12-18T15:57:55.168Z,34.58
2022-12-18T16:00:42.800Z,33.25
2022-12-18T16:03:30.631Z,30.15
2022-12-18T16:06:16.880Z,38.92
2022-12-18T16:09:03.301Z,32.88
2022-12-18T16:11:59.417Z,35.30
2022-12-18T16:14:45.998Z,31.98
2022-12-18T16:17:32.264Z,33.55
2022-12-18T16:20:19.477Z,33.22
2022-12-18T16:23:05.910Z,37.15
2022-12-18T16:25:53.138Z,36.75
2022-12-18T16:28:42.542Z,31.98
2022-12-18T16:31:34.419Z,32.50
2022-12-18T16:34:29.566Z,32.05
2022-12-18T16:37:19.397Z,33.75
2022-12-18T16:40:06.773Z,34.33
2022-12-18T17:20:18.205Z,26.10
2022-12-18T17:23:06.507Z,27.70
2022-12-18T17:25:56.696Z,27.63
2022-12-18T17:28:43.931Z,28.90
2022-12-18T17:40:47.192Z,25.67
2022-12-18T17:43:39.505Z,28.30
2022-12-18T17:46:30.995Z,25.95
2022-12-18T17:49:17.723Z,31.25
2022-12-18T17:52:07.167Z,28.15
2022-12-18T17:54:56.286Z,25.77
2022-12-18T17:57:43.948Z,22.65
2022-12-18T18:00:33.102Z,22.48
2022-12-18T18:03:19.724Z,25.00
2022-12-18T18:06:06.669Z,25.10
2022-12-18T18:08:54.418Z,24.38
2022-12-18T18:12:12.654Z,19.42
2022-12-18T18:14:59.586Z,23.75
2022-12-18T18:17:47.009Z,23.70
2022-12-18T18:20:36.462Z,19.05
2022-12-18T18:23:23.892Z,18.83
2022-12-18T18:26:10.640Z,23.13
2022-12-18T18:29:01.964Z,19.17
2022-12-18T18:31:50.441Z,19.67
2022-12-18T18:34:40.226Z,21.27
2022-12-18T18:37:29.200Z,24.50
2022-12-18T18:40:24.730Z,23.20
2022-12-18T18:43:24.237Z,21.55
2022-12-18T18:50:17.128Z,19.98
2022-12-18T18:53:07.563Z,15.05
2022-12-18T18:59:05.315Z,21.65
2022-12-18T19:01:53.725Z,16.92
2022-12-18T19:04:46.991Z,20.75
2022-12-18T19:07:37.285Z,21.25
2022-12-18T19:10:28.448Z,15.68
2022-12-18T19:13:27.523Z,16.65
2022-12-18T19:16:17.004Z,18.20
2022-12-18T19:19:05.345Z,21.08
2022-12-18T19:25:44.017Z,15.80
2022-12-18T19:28:31.022Z,16.30
2022-12-18T19:31:27.045Z,16.70
2022-12-18T19:34:15.080Z,17.30
2022-12-18T19:37:08.921Z,17.30
2022-12-18T19:39:59.614Z,14.60
2022-12-18T19:42:48.821Z,17.67
2022-12-18T19:45:35.486Z,16.33
2022-12-18T19:48:27.788Z,15.77
2022-12-18T19:51:22.622Z,18.50
2022-12-18T19:54:17.387Z,13.60
2022-12-18T19:57:07.369Z,20.20
2022-12-18T19:59:57.848Z,18.25
2022-12-18T20:02:44.631Z,16.00
2022-12-18T20:05:31.453Z,16.42
2022-12-18T20:08:20.886Z,17.60
2022-12-18T20:11:28.053Z,15.95
2022-12-18T20:14:19.636Z,15.48
2022-12-18T20:17:10.105Z,13.55
2022-12-18T20:19:57.226Z,15.27
2022-12-18T20:22:48.404Z,15.73
2022-12-18T20:25:35.416Z,16.35
2022-12-18T20:28:44.034Z,15.27
2022-12-18T20:34:50.880Z,15.52
2022-12-18T20:37:38.027Z,21.88
2022-12-18T20:40:53.783Z,14.43
2022-12-18T20:46:48.713Z,18.38
2022-12-18T20:49:35.483Z,16.00
2022-12-18T20:52:23.678Z,13.52
2022-12-18T20:55:10.503Z,17.95
2022-12-18T20:57:57.378Z,15.48
2022-12-18T21:00:43.678Z,16.02
2022-12-18T21:03:30.153Z,16.58
2022-12-18T21:06:17.982Z,15.57
2022-12-18T21:09:04.847Z,15.20
2022-12-18T21:12:14.347Z,15.02
2022-12-18T21:15:02.718Z,18.45
2022-12-18T21:17:49.350Z,15.93
2022-12-18T21:20:35.772Z,18.38
2022-12-18T21:23:21.868Z,16.95
2022-12-18T21:26:41.848Z,18.08
2022-12-18T21:29:32.347Z,16.30
2022-12-18T21:38:02.708Z,14.73
2022-12-18T21:40:51.773Z,14.43
2022-12-18T21:43:57.258Z,12.75
2022-12-18T21:46:44.875Z,14.50
2022-12-18T21:49:32.417Z,15.93
2022-12-18T21:52:18.692Z,13.75
2022-12-18T21:56:03.019Z,16.42
2022-12-18T21:58:55.241Z,19.55
2022-12-18T22:01:47.915Z,19.60
2022-12-18T22:04:36.628Z,18.50
2022-12-18T22:07:27.318Z,22.15
2022-12-18T22:10:14.056Z,15.63
2022-12-18T22:13:02.042Z,19.80
2022-12-18T22:15:48.973Z,19.58
2022-12-18T22:18:41.972Z,16.02
2022-12-18T22:21:29.712Z,15.63
2022-12-18T22:24:18.120Z,14.65
2022-12-18T22:27:05.777Z,15.82
2022-12-18T22:30:07.374Z,15.32
2022-12-18T22:32:53.297Z,17.50
2022-12-18T22:35:39.943Z,16.05
2022-12-18T22:38:26.255Z,15.05
2022-12-18T22:41:13.000Z,16.75
2022-12-18T22:43:59.880Z,22.85
2022-12-18T22:46:51.043Z,13.90
2022-12-18T22:49:46.595Z,17.02
2022-12-18T22:52:32.846Z,16.67
2022-12-18T22:55:18.919Z,20.52
2022-12-18T22:58:05.149Z,14.10
2022-12-18T23:00:51.376Z,20.20
2022-12-18T23:03:37.967Z,17.45
2022-12-18T23:06:26.235Z,16.27
2022-12-18T23:09:17.417Z,13.23
2022-12-18T23:12:04.519Z,14.93
2022-12-18T23:14:50.545Z,18.05
2022-12-18T23:17:36.770Z,19.25
2022-12-18T23:20:23.022Z,18.27
2022-12-18T23:23:09.094Z,17.77
2022-12-18T23:26:01.048Z,17.00
2022-12-18T23:28:47.614Z,16.40
2022-12-18T23:31:38.763Z,16.63
2022-12-18T23:34:25.160Z,19.08
2022-12-18T23:37:12.073Z,21.45
2022-12-18T23:39:58.327Z,18.90
2022-12-18T23:42:45.288Z,25.17
2022-12-18T23:45:32.098Z,22.00
2022-12-18T23:48:19.225Z,19.67
2022-12-18T23:51:08.840Z,25.88
2022-12-18T23:53:56.935Z,16.63
2022-12-18T23:56:43.764Z,21.92
2022-12-18T23:59:30.783Z,21.38
